Latest Coastal Weather Observations for Flinders Island Airport

IDT60701

Issued at 4:25 pm EDT Saturday 1 November 2014 (issued every 10 minutes, with the page automatically refreshed every 10 minutes)

About coastal observations | Map of coastal stations | Coastal observations for TAS | Marine services | Other Formats
Station Details ID: 099005 Name: FLINDERS ISLAND AIRPORT Lat: -40.09 Lon: 148.00 Height: 9.0 m
Data from the previous 72 hours. | See also: Recent months at Flinders Island Airport
Date/Time
EDT
Temp

°C
Wind Pressure Rain
since 9am
mm
Weather Cloud Vis
km
Sea
Height
m
Swell
Dir
 
Speed
knots
Gust
knots
hPa Trend Height
m
Period
s
Dir
01/04:00pm 14.1 W 32 40 999.9 - 0.8 - Partly cloudy 10 - - - -
01/03:30pm 14.4 W 31 41 999.6 - 0.8 - Partly cloudy 10 - - - -
01/03:11pm 15.2 W 30 40 999.5 - 0.8 - Partly cloudy 10 - - - -
01/03:00pm 14.8 W 28 34 999.5 - 0.8 - Partly cloudy 10 - - - -
01/02:48pm 15.0 W 30 40 999.4 - 0.8 - Partly cloudy 10 - - - -
01/02:30pm 14.4 W 31 39 999.4 - 0.8 - Partly cloudy 10 - - - -
01/02:00pm 15.8 W 29 39 999.3 - 0.8 - Partly cloudy 10 - - - -
01/01:52pm 15.9 W 29 39 999.3 - 0.8 - Partly cloudy 10 - - - -
01/01:30pm 15.4 W 26 33 999.1 - 0.8 - Partly cloudy 10 - - - -
01/01:06pm 14.3 W 30 40 999.0 - 0.8 - Partly cloudy 10 - - - -
01/01:00pm 15.0 W 27 35 999.0 - 0.8 - Partly cloudy 10 - - - -
01/12:43pm 15.8 W 27 40 999.0 - 0.8 - Partly cloudy 10 - - - -
01/12:30pm 15.4 W 29 33 999.0 - 0.8 - Partly cloudy 10 - - - -
01/12:00pm 15.1 W 25 31 998.7 - 0.8 - Partly cloudy 10 - - - -
01/11:30am 14.8 W 27 32 998.5 - 0.8 - Partly cloudy 10 - - - -
01/11:12am 14.2 W 24 34 998.5 - 0.8 - Partly cloudy 10 - - - -
01/11:00am 14.3 W 27 33 998.7 - 0.8 - Partly cloudy 10 - - - -
01/10:30am 13.7 W 22 29 998.6 - 0.8 - Partly cloudy 10 - - - -
01/10:16am 13.6 W 22 29 998.5 - 0.8 - Partly cloudy 10 - - - -
01/10:00am 13.3 W 21 27 998.0 - 0.8 - Partly cloudy 10 - - - -
01/09:59am 13.3 W 21 27 998.0 - 0.8 - Partly cloudy 10 - - - -
01/09:30am 12.4 W 18 23 997.9 - 0.8 - Partly cloudy 10 - - - -
01/09:24am 12.3 W 19 26 997.8 - 0.8 - Partly cloudy 10 - - - -
01/09:22am 12.3 W 19 26 997.6 - 0.8 - Partly cloudy 10 - - - -
01/09:04am 12.3 W 21 34 997.4 - 0.4 - Partly cloudy 5 - - - -
01/09:03am 13.6 W 21 34 997.4 - 0.4 - Partly cloudy 6 - - - -
01/09:00am 13.5 WNW 20 25 997.4 - 0.4 Rain Cloudy 7 - - - -
01/08:30am 14.3 W 19 27 997.3 - 0.0 - Partly cloudy 10 - - - -
01/08:04am 14.4 W 19 26 996.9 - 0.0 - Partly cloudy 10 - - - -
01/08:00am 14.6 W 20 27 996.9 - 0.0 - Partly cloudy 10 - - - -
01/07:59am 14.6 W 20 27 997.0 - 0.0 - Partly cloudy 10 - - - -
01/07:43am 14.9 W 19 26 996.8 - 0.0 - Partly cloudy 10 - - - -
01/07:30am 14.9 W 20 26 996.6 - 0.0 - Partly cloudy 10 - - - -
01/07:00am 14.9 W 16 21 995.8 - 0.0 - - 10 - - - -
01/06:30am 14.9 W 13 18 995.3 - 0.0 - - 10 - - - -
01/06:00am 15.0 W 16 20 995.0 - 0.0 - Cloudy 10 - - - -
01/05:30am 15.3 W 14 17 994.5 - 0.0 - - 10 - - - -
01/05:00am 15.6 W 17 22 995.3 - 0.0 - - 10 - - - -
01/04:30am 16.0 W 20 26 995.0 - 0.0 - - 10 - - - -
01/04:00am 16.7 W 17 21 994.6 - 0.0 - - 10 - - - -
01/03:30am 17.7 NW 15 19 993.5 - 0.0 - - 10 - - - -
01/03:00am 19.0 NW 21 29 993.1 - 0.0 - Cloudy 10 - - - -
01/02:31am 21.4 NNW 17 27 992.7 - 0.0 - - 10 - - - -
01/02:30am 21.4 NNW 18 27 992.7 - 0.0 - - 10 - - - -
01/02:12am 20.4 NNW 16 27 993.0 - 0.0 - - 10 - - - -
01/02:10am 20.0 WNW 25 35 993.7 - 0.0 - - 10 - - - -
01/02:00am 19.8 NNE 24 32 992.1 - 0.0 - - 10 - - - -
01/01:30am 19.2 NNE 23 29 992.4 - 0.0 - - 10 - - - -
01/01:00am 19.1 NNE 23 32 993.3 - 0.0 - - 10 - - - -
01/12:30am 19.5 NNE 24 29 994.3 - 0.0 - - 10 - - - -
01/12:00am 19.3 NNE 24 33 995.1 - 0.0 - Mostly cloudy 10 - - - -
 
Date/Time
EDT
Temp

°C
Wind Pressure Rain
since 9am
mm
Weather Cloud Vis
km
Sea
Height
m
Swell
Dir
 
Speed
knots
Gust
knots
hPa Trend Height
m
Period
s
Dir
31/11:30pm 19.4 NNE 20 26 996.0 - 0.0 - - 10 - - - -
31/11:00pm 19.5 NNE 20 30 996.7 - 0.0 - - 10 - - - -
31/10:30pm 19.2 NNE 22 28 997.5 - 0.0 - - 10 - - - -
31/10:00pm 19.1 NNE 22 29 998.3 - 0.0 - - 10 - - - -
31/09:30pm 18.5 NNE 21 27 999.0 - 0.0 - - 10 - - - -
31/09:00pm 18.1 NNE 21 28 999.4 - 0.0 - Mostly clear 10 - - - -
31/08:30pm 18.1 NNE 19 24 999.8 - 0.0 - Partly cloudy 10 - - - -
31/08:00pm 17.6 NNE 17 22 1000.4 - 0.0 - Partly cloudy 10 - - - -
31/07:30pm 17.2 NE 15 20 1001.0 - 0.0 - Partly cloudy 10 - - - -
31/07:00pm 17.3 ENE 12 16 1001.3 - 0.0 - Partly cloudy 10 - - - -
31/06:30pm 17.8 NE 11 16 1001.5 - 0.0 - - 10 - - - -
31/06:00pm 18.8 NNE 11 15 1001.6 - 0.0 - - 10 - - - -
31/05:30pm 19.7 NE 13 17 1001.8 - 0.0 - - 10 - - - -
31/05:00pm 19.7 NNE 13 16 1002.3 - 0.0 - - 10 - - - -
31/04:30pm 20.2 ENE 15 17 1002.6 - 0.0 - - 10 - - - -
31/04:00pm 20.2 NNE 10 13 1003.1 - 0.0 - - 10 - - - -
31/03:30pm 19.7 NNE 13 17 1003.7 - 0.0 - - 10 - - - -
31/03:00pm 19.7 N 15 19 1004.3 - 0.0 - - 10 - - - -
31/02:30pm 20.1 N 14 19 1004.8 - 0.0 - Partly cloudy 10 - - - -
31/02:00pm 20.0 N 13 18 1005.4 - 0.0 - Partly cloudy 10 - - - -
31/01:30pm 19.6 N 13 17 1006.0 - 0.0 - Partly cloudy 10 - - - -
31/01:00pm 18.8 N 14 20 1006.2 - 0.0 - - 10 - - - -
31/12:30pm 18.6 NW 12 16 1007.2 - 0.0 - - 10 - - - -
31/12:00pm 17.8 NW 15 19 1008.0 - 0.0 - Partly cloudy 10 - - - -
31/11:30am 17.5 WNW 12 17 1008.5 - 0.0 - - 10 - - - -
31/11:00am 17.3 NW 12 16 1008.2 - 0.0 - - 10 - - - -
31/10:30am 17.4 NW 11 17 1008.9 - 0.0 - Partly cloudy 10 - - - -
31/10:00am 16.5 WNW 11 15 1009.3 - 0.0 - - 10 - - - -
31/09:30am 16.2 WNW 12 16 1009.6 - 0.0 - - 10 - - - -
31/09:00am 15.6 NW 12 17 1010.0 - 0.2 - Partly cloudy 10 - - - -
31/08:30am 14.4 NW 13 17 1010.3 - 0.2 - Cloudy 10 - - - -
31/08:00am 14.3 WNW 11 16 1010.4 - 0.2 - Partly cloudy 10 - - - -
31/07:30am 14.0 WNW 11 16 1010.1 - 0.2 - Cloudy 10 - - - -
31/07:00am 13.4 WNW 10 16 1010.3 - 0.2 - Partly cloudy 10 - - - -
31/06:30am 13.3 WNW 8 14 1010.3 - 0.2 - Partly cloudy 10 - - - -
31/06:00am 13.1 WNW 10 14 1010.2 - 0.2 - Mostly cloudy 10 - - - -
31/05:30am 13.1 WNW 9 11 1010.0 - 0.2 - Partly cloudy 10 - - - -
31/05:00am 13.1 WNW 10 14 1010.0 - 0.2 - Partly cloudy 10 - - - -
31/04:30am 12.9 WNW 11 15 1010.2 - 0.2 - Partly cloudy 10 - - - -
31/04:06am 12.8 W 11 15 1010.3 - 0.2 - Partly cloudy 10 - - - -
31/04:00am 12.6 WNW 10 13 1010.4 - 0.2 - Partly cloudy 10 - - - -
31/03:30am 12.5 W 11 14 1010.6 - 0.2 - Partly cloudy 10 - - - -
31/03:21am 12.6 W 13 15 1010.8 - 0.2 - Partly cloudy 10 - - - -
31/03:14am 12.7 W 12 15 1010.9 - 0.2 - Partly cloudy 10 - - - -
31/03:00am 12.7 W 12 16 1011.0 - 0.2 - Partly cloudy 10 - - - -
31/02:30am 12.7 W 12 15 1011.1 - 0.2 - Partly cloudy 10 - - - -
31/02:05am 12.7 W 12 16 1011.4 - 0.2 - Partly cloudy 10 - - - -
31/02:00am 12.6 W 12 16 1011.5 - 0.2 - Partly cloudy 10 - - - -
31/01:30am 12.6 W 11 15 1011.6 - 0.2 - Partly cloudy 10 - - - -
31/01:00am 12.6 W 11 15 1011.9 - 0.2 - Partly cloudy 10 - - - -
31/12:30am 12.8 W 15 17 1011.7 - 0.2 - - 10 - - - -
31/12:00am 12.8 W 12 16 1012.0 - 0.2 - - 10 - - - -
 
Date/Time
EDT
Temp

°C
Wind Pressure Rain
since 9am
mm
Weather Cloud Vis
km
Sea
Height
m
Swell
Dir
 
Speed
knots
Gust
knots
hPa Trend Height
m
Period
s
Dir
30/11:30pm 13.0 W 15 19 1012.2 - 0.2 - - 10 - - - -
30/11:00pm 13.1 W 14 19 1012.2 - 0.2 - - 10 - - - -
30/10:30pm 13.2 W 14 18 1012.2 - 0.2 - - 10 - - - -
30/10:00pm 13.3 W 16 20 1012.3 - 0.2 - - 10 - - - -
30/09:30pm 13.5 W 16 20 1012.1 - 0.2 - - 10 - - - -
30/09:00pm 13.6 W 17 22 1012.0 - 0.2 - Cloudy 10 - - - -
30/08:30pm 13.6 W 16 21 1011.8 - 0.2 - - 10 - - - -
30/08:00pm 13.6 W 18 26 1011.8 - 0.2 - - 10 - - - -
30/07:30pm 13.6 W 18 22 1011.4 - 0.2 - - 10 - - - -
30/07:00pm 14.1 W 17 22 1011.4 - 0.2 - - 10 - - - -
30/06:30pm 14.5 W 20 25 1011.3 - 0.2 - - 10 - - - -
30/06:00pm 14.8 W 20 28 1011.2 - 0.2 - - 10 - - - -
30/05:30pm 15.3 W 18 23 1011.2 - 0.2 - - 10 - - - -
30/05:00pm 15.2 W 19 24 1011.1 - 0.2 - Partly cloudy 10 - - - -
30/04:39pm 15.3 W 19 24 1011.0 - 0.2 - Partly cloudy 10 - - - -
30/04:30pm 15.7 W 20 28 1010.9 - 0.2 - Partly cloudy 10 - - - -
30/04:25pm 15.9 W 21 28 1010.9 - 0.2 - Partly cloudy 10 - - - -
30/04:12pm 15.9 W 20 26 1010.8 - 0.2 - Partly cloudy 10 - - - -
30/04:00pm 15.9 W 20 26 1011.0 - 0.2 - Partly cloudy 10 - - - -
30/03:30pm 15.5 W 21 28 1011.1 - 0.2 - Partly cloudy 10 - - - -
30/03:00pm 16.7 W 22 28 1011.1 - 0.2 - Cloudy 10 - - - -
30/02:30pm 15.9 W 19 24 1011.1 - 0.2 - Partly cloudy 10 - - - -
30/02:00pm 15.8 W 20 26 1011.6 - 0.2 - Partly cloudy 10 - - - -
30/01:30pm 14.9 W 21 29 1011.6 - 0.2 - Partly cloudy 10 - - - -
30/01:29pm 14.6 W 22 29 1011.6 - 0.2 - Partly cloudy 10 - - - -
30/01:00pm 15.8 W 18 22 1011.5 - 0.2 - Partly cloudy 10 - - - -
30/12:51pm 15.8 W 17 21 1011.6 - 0.2 - Partly cloudy 10 - - - -
30/12:39pm 14.4 W 17 23 1011.6 - 0.0 - Partly cloudy 10 - - - -
30/12:36pm 14.3 W 18 23 1011.6 - 0.0 - Partly cloudy 10 - - - -
30/12:30pm 14.5 W 18 24 1011.5 - 0.0 - Partly cloudy 10 - - - -
30/12:24pm 13.8 W 18 23 1011.6 - 0.0 - Partly cloudy 8 - - - -
30/12:00pm 16.1 W 18 23 1011.8 - 0.0 - Partly cloudy 10 - - - -
30/11:30am 15.8 W 18 22 1012.0 - 0.0 - Cloudy 10 - - - -
30/11:07am 14.2 W 17 22 1012.4 - 0.0 - Partly cloudy 10 - - - -
30/11:00am 14.0 W 18 24 1012.4 - 0.0 - Partly cloudy 10 - - - -
30/10:53am 13.5 W 19 25 1012.5 - 0.0 - Partly cloudy 10 - - - -
30/10:47am 13.7 W 18 25 1012.5 - 0.0 - Partly cloudy 10 - - - -
30/10:31am 13.0 W 18 27 1012.5 - 0.0 - Partly cloudy 5 - - - -
30/10:30am 12.8 W 18 27 1012.5 - 0.0 - Partly cloudy 6 - - - -
30/10:26am 13.7 W 17 27 1012.4 - 0.0 - Partly cloudy 10 - - - -
30/10:00am 13.6 W 16 21 1012.5 - 0.0 - Partly cloudy 10 - - - -
30/09:54am 13.4 W 18 22 1012.4 - 0.0 - Partly cloudy 10 - - - -
30/09:34am 13.5 W 18 24 1012.4 - 0.0 - Partly cloudy 5 - - - -
30/09:30am 14.3 W 17 24 1012.3 - 0.0 - Partly cloudy 10 - - - -
30/09:28am 14.2 W 17 21 1012.3 - 0.0 - Partly cloudy 10 - - - -
30/09:00am 14.0 W 14 18 1012.4 - 0.4 Recent precip. Cloudy 10 - - - -
30/08:52am 13.7 W 12 18 1012.3 - 0.4 - Partly cloudy 10 - - - -
30/08:30am 12.8 W 17 21 1012.5 - 0.4 - Partly cloudy 10 - - - -
30/08:05am 13.1 W 18 22 1012.3 - 0.2 - Partly cloudy 10 - - - -
30/08:00am 13.1 W 20 23 1012.2 - 0.2 - Partly cloudy 10 - - - -
30/07:30am 13.0 W 17 21 1011.8 - 0.2 - Partly cloudy 10 - - - -
30/07:00am 12.5 W 15 20 1011.6 - 0.2 - Cloudy 10 - - - -
30/06:30am 11.9 W 17 21 1011.4 - 0.2 - Cloudy 10 - - - -
30/06:20am 12.0 W 18 21 1011.5 - 0.2 - Partly cloudy - - - - -
30/06:00am 12.1 W 19 26 1011.6 - 0.2 Recent precip. Cloudy - - - - -
30/05:56am 12.2 W 20 25 1011.4 - 0.2 - Partly cloudy 3 - - - -
30/05:47am 12.3 W 21 25 1011.3 - 0.2 - Partly cloudy 5 - - - -
30/05:30am 12.5 W 17 21 1011.2 - 0.0 - Partly cloudy 10 - - - -
30/05:14am 12.3 W 16 19 1011.5 - 0.0 - Partly cloudy 10 - - - -
30/05:13am 12.3 W 16 21 1011.5 - 0.0 - Partly cloudy 10 - - - -
30/05:00am 12.5 W 18 22 1011.3 - 0.0 - Partly cloudy 5 - - - -
30/04:52am 12.4 W 20 27 1011.3 - 0.0 - Partly cloudy 10 - - - -
30/04:51am 12.4 W 20 27 1011.3 - 0.0 - Partly cloudy 10 - - - -
30/04:44am 12.1 W 17 27 1011.3 - 0.0 - Partly cloudy 10 - - - -
30/04:30am 12.0 W 23 30 1011.3 - 0.0 - Partly cloudy 4 - - - -
30/04:24am 12.3 W 19 30 1011.3 - 0.0 - Partly cloudy 5 - - - -
30/04:23am 12.7 W 18 28 1011.4 - 0.0 - Partly cloudy 6 - - - -
30/04:00am 13.5 W 18 23 1011.3 - 0.0 - Partly cloudy 10 - - - -
30/03:30am 13.3 WNW 19 26 1011.1 - 0.0 - Partly cloudy 10 - - - -
30/03:00am 13.5 WNW 17 23 1011.3 - 0.0 - Mostly cloudy 10 - - - -
30/02:30am 13.4 W 18 22 1011.4 - 0.0 - Cloudy 10 - - - -
30/02:00am 13.2 W 18 23 1011.6 - 0.0 - Partly cloudy 10 - - - -
30/01:53am 13.2 W 18 23 1011.7 - 0.0 - Partly cloudy 10 - - - -
30/01:30am 13.4 W 18 24 1011.8 - 0.0 - Partly cloudy 10 - - - -
30/01:04am 13.5 W 18 24 1012.1 - 0.0 - Partly cloudy 10 - - - -
30/01:00am 13.4 W 17 23 1012.1 - 0.0 - Partly cloudy 10 - - - -
30/12:30am 13.2 W 18 24 1012.3 - 0.0 - - 10 - - - -
30/12:00am 12.9 W 17 22 1012.4 - 0.0 - - 10 - - - -
 
Date/Time
EDT
Temp

°C
Wind Pressure Rain
since 9am
mm
Weather Cloud Vis
km
Sea
Height
m
Swell
Dir
 
Speed
knots
Gust
knots
hPa Trend Height
m
Period
s
Dir
29/11:30pm 13.1 W 17 22 1012.7 - 0.0 - Partly cloudy 10 - - - -
29/11:00pm 13.1 W 17 24 1012.9 - 0.0 - Partly cloudy 10 - - - -
29/10:30pm 13.1 W 20 27 1013.0 - 0.0 - Partly cloudy 10 - - - -
29/10:00pm 13.1 W 19 25 1013.2 - 0.0 - - 10 - - - -
29/09:30pm 13.1 W 19 24 1013.3 - 0.0 - - 10 - - - -
29/09:00pm 13.1 W 20 27 1013.2 - 0.0 - Mostly clear 10 - - - -
29/08:30pm 13.0 W 20 27 1013.1 - 0.0 - Partly cloudy 10 - - - -
29/08:00pm 13.7 W 21 30 1012.9 - 0.0 - Partly cloudy 10 - - - -
29/07:30pm 13.8 W 22 29 1012.8 - 0.0 - Cloudy 10 - - - -
29/07:00pm 13.8 W 21 27 1012.6 - 0.0 - Partly cloudy 10 - - - -
29/06:30pm 14.3 W 23 30 1012.5 - 0.0 - Partly cloudy 10 - - - -
29/06:00pm 14.4 W 21 27 1012.6 - 0.0 - Partly cloudy 10 - - - -
29/05:30pm 14.6 W 23 29 1012.8 - 0.0 - Partly cloudy 10 - - - -
29/05:00pm 14.6 W 22 28 1012.8 - 0.0 - Partly cloudy 10 - - - -
29/04:30pm 15.1 W 22 28 1012.8 - 0.0 - Partly cloudy 10 - - - -

Other Formats:

Comma delimited format used in spreadsheet applications
http://www.bom.gov.au/fwo/IDT60701/IDT60701.94980.axf

JavaScript Object Notation format (JSON) in row-major order
http://www.bom.gov.au/fwo/IDT60701/IDT60701.94980.json